createdAt,value
2022-12-26T00:01:57.094Z,100638.41
2022-12-26T00:04:49.675Z,100639.28
2022-12-26T00:07:10.033Z,100629.63
2022-12-26T00:09:36.366Z,100633.19
2022-12-26T00:12:02.655Z,100626.19
2022-12-26T00:14:29.041Z,100615.69
2022-12-26T00:16:55.316Z,100613.06
2022-12-26T00:19:21.574Z,100608.69
2022-12-26T00:21:47.856Z,100610.41
2022-12-26T00:24:14.124Z,100613.00
2022-12-26T00:26:40.472Z,100608.53
2022-12-26T00:29:06.770Z,100614.59
2022-12-26T00:31:34.416Z,100618.06
2022-12-26T00:34:01.551Z,100616.31
2022-12-26T00:36:29.654Z,100613.72
2022-12-26T00:38:57.148Z,100608.44
2022-12-26T00:41:23.431Z,100606.75
2022-12-26T00:43:50.197Z,100595.44
2022-12-26T00:46:17.196Z,100593.66
2022-12-26T00:48:43.507Z,100594.56
2022-12-26T00:51:10.101Z,100591.94
2022-12-26T00:53:36.498Z,100591.09
2022-12-26T00:56:02.790Z,100592.84
2022-12-26T00:58:29.033Z,100594.56
2022-12-26T01:00:55.736Z,100586.75
2022-12-26T01:03:22.136Z,100581.50
2022-12-26T01:05:49.789Z,100588.47
2022-12-26T01:08:23.310Z,100598.06
2022-12-26T01:10:50.649Z,100603.25
2022-12-26T01:13:16.960Z,100599.72
2022-12-26T01:18:15.427Z,100599.72
2022-12-26T01:20:44.594Z,100591.00
2022-12-26T01:23:10.968Z,100592.78
2022-12-26T01:26:17.323Z,100591.00
2022-12-26T01:28:25.059Z,100598.84
2022-12-26T01:30:51.328Z,100605.78
2022-12-26T01:33:17.748Z,100604.94
2022-12-26T01:35:51.133Z,100600.53
2022-12-26T01:38:17.584Z,100589.25
2022-12-26T01:40:44.167Z,100598.00
2022-12-26T01:43:12.043Z,100605.84
2022-12-26T01:45:38.461Z,100610.22
2022-12-26T01:48:19.928Z,100611.16
2022-12-26T01:50:46.175Z,100611.16
2022-12-26T01:53:15.292Z,100614.63
2022-12-26T01:55:43.198Z,100618.16
2022-12-26T01:58:14.400Z,100608.56
2022-12-26T02:00:41.143Z,100609.47
2022-12-26T02:03:26.729Z,100605.13
2022-12-26T02:05:55.642Z,100606.91
2022-12-26T02:08:25.069Z,100614.75
2022-12-26T02:10:55.557Z,100608.69
2022-12-26T02:13:21.980Z,100608.75
2022-12-26T02:15:48.326Z,100598.25
2022-12-26T02:18:14.718Z,100595.66
2022-12-26T02:20:45.763Z,100597.41
2022-12-26T02:23:12.010Z,100599.16
2022-12-26T02:25:56.978Z,100593.91
2022-12-26T02:28:42.095Z,100595.66
2022-12-26T02:31:11.412Z,100593.09
2022-12-26T02:33:37.652Z,100593.97
2022-12-26T02:36:22.738Z,100591.31
2022-12-26T02:38:49.018Z,100593.09
2022-12-26T02:41:26.296Z,100597.50
2022-12-26T02:43:52.543Z,100596.63
2022-12-26T02:46:42.375Z,100585.28
2022-12-26T02:49:32.003Z,100592.28
2022-12-26T02:52:28.317Z,100595.78
2022-12-26T02:55:19.722Z,100599.31
2022-12-26T02:58:09.815Z,100599.31
2022-12-26T03:00:58.907Z,100590.59
2022-12-26T03:03:46.720Z,100593.22
2022-12-26T03:06:41.030Z,100588.88
2022-12-26T03:09:30.972Z,100583.63
2022-12-26T03:12:19.959Z,100590.59
2022-12-26T03:14:52.282Z,100591.44
2022-12-26T03:17:29.004Z,100601.09
2022-12-26T03:20:01.275Z,100601.94
2022-12-26T03:22:46.382Z,100603.72
2022-12-26T03:25:40.686Z,100606.34
2022-12-26T03:28:07.741Z,100612.41
2022-12-26T03:30:49.360Z,100608.09
2022-12-26T03:33:38.313Z,100609.00
2022-12-26T03:36:05.304Z,100605.53
2022-12-26T03:38:55.344Z,100605.53
2022-12-26T03:42:11.852Z,100604.69
2022-12-26T03:45:03.447Z,100598.59
2022-12-26T03:47:54.832Z,100599.47
2022-12-26T03:50:43.896Z,100596.03
2022-12-26T03:53:31.819Z,100598.66
2022-12-26T03:56:22.815Z,100595.16
2022-12-26T03:59:23.814Z,100595.19
2022-12-26T04:02:09.729Z,100590.84
2022-12-26T04:04:56.494Z,100602.19
2022-12-26T04:07:56.091Z,100596.97
2022-12-26T04:11:03.782Z,100603.06
2022-12-26T04:13:56.567Z,100603.97
2022-12-26T04:16:46.401Z,100610.94
2022-12-26T04:19:35.792Z,100612.72
2022-12-26T04:22:27.800Z,100598.75
2022-12-26T04:25:16.712Z,100604.88
2022-12-26T04:28:01.372Z,100595.25
2022-12-26T04:30:46.659Z,100597.03
2022-12-26T04:33:38.080Z,100589.16
2022-12-26T04:36:26.492Z,100577.00
2022-12-26T04:39:18.050Z,100582.28
2022-12-26T04:42:05.882Z,100578.78
2022-12-26T04:44:33.079Z,100578.78
2022-12-26T04:46:59.375Z,100588.41
2022-12-26T04:49:44.456Z,100583.22
2022-12-26T04:52:12.588Z,100580.66
2022-12-26T04:54:39.098Z,100595.50
2022-12-26T04:57:05.786Z,100588.53
2022-12-26T04:59:32.558Z,100585.06
2022-12-26T05:02:17.779Z,100592.97
2022-12-26T05:05:03.119Z,100588.63
2022-12-26T05:07:49.287Z,100586.88
2022-12-26T05:10:17.909Z,100592.13
2022-12-26T05:12:44.422Z,100593.03
2022-12-26T05:15:11.219Z,100599.19
2022-12-26T05:17:56.002Z,100589.59
2022-12-26T05:20:51.582Z,100589.59
2022-12-26T05:23:47.074Z,100584.38
2022-12-26T05:26:33.896Z,100589.63
2022-12-26T05:29:00.431Z,100587.91
2022-12-26T05:31:32.983Z,100592.28
2022-12-26T05:34:08.057Z,100580.03
2022-12-26T05:36:41.410Z,100583.56
2022-12-26T05:39:08.576Z,100582.72
2022-12-26T05:41:35.233Z,100579.22
2022-12-26T05:44:01.593Z,100579.19
2022-12-26T05:46:28.074Z,100568.72
2022-12-26T05:48:54.453Z,100582.72
2022-12-26T05:51:20.762Z,100591.50
2022-12-26T05:53:48.293Z,100580.09
2022-12-26T05:56:15.992Z,100582.75
2022-12-26T05:58:42.755Z,100578.38
2022-12-26T06:01:18.943Z,100581.00
2022-12-26T06:03:49.192Z,100581.88
2022-12-26T06:06:15.785Z,100580.16
2022-12-26T06:08:42.165Z,100585.41
2022-12-26T06:11:09.966Z,100577.56
2022-12-26T06:13:36.626Z,100573.22
2022-12-26T06:16:06.923Z,100580.25
2022-12-26T06:18:33.436Z,100576.75
2022-12-26T06:21:00.161Z,100583.78
2022-12-26T06:23:26.445Z,100583.81
2022-12-26T06:25:54.365Z,100582.06
2022-12-26T06:28:20.808Z,100582.09
2022-12-26T06:30:47.198Z,100590.00
2022-12-26T06:33:13.530Z,100589.97
2022-12-26T06:35:39.783Z,100585.63
2022-12-26T06:38:06.990Z,100580.38
2022-12-26T06:40:34.048Z,100581.28
2022-12-26T06:43:00.381Z,100588.28
2022-12-26T06:45:26.787Z,100589.16
2022-12-26T06:47:53.342Z,100595.28
2022-12-26T06:50:21.569Z,100600.53
2022-12-26T06:52:47.853Z,100596.19
2022-12-26T06:55:14.151Z,100597.97
2022-12-26T06:57:40.434Z,100594.47
2022-12-26T07:00:07.177Z,100601.47
2022-12-26T07:02:33.598Z,100596.25
2022-12-26T07:04:59.940Z,100599.78
2022-12-26T07:07:27.066Z,100604.16
2022-12-26T07:09:53.457Z,100587.53
2022-12-26T07:12:21.644Z,100581.44
2022-12-26T07:14:48.490Z,100588.44
2022-12-26T07:17:14.926Z,100588.44
2022-12-26T07:19:41.203Z,100595.47
2022-12-26T07:22:07.480Z,100607.72
2022-12-26T07:24:33.768Z,100604.22
2022-12-26T07:27:00.108Z,100606.84
2022-12-26T07:29:26.402Z,100603.38
2022-12-26T07:31:52.758Z,100606.00
2022-12-26T07:34:19.092Z,100609.50
2022-12-26T07:36:45.442Z,100606.91
2022-12-26T07:39:13.347Z,100616.53
2022-12-26T07:41:57.924Z,100614.78
2022-12-26T07:44:25.277Z,100615.69
2022-12-26T07:46:51.616Z,100616.56
2022-12-26T07:49:17.874Z,100612.22
2022-12-26T07:51:44.170Z,100619.22
2022-12-26T07:54:11.582Z,100618.34
2022-12-26T07:56:38.650Z,100615.75
2022-12-26T07:59:04.983Z,100622.75
2022-12-26T08:01:31.553Z,100622.78
2022-12-26T08:03:58.186Z,100617.56
2022-12-26T08:06:24.552Z,100620.19
2022-12-26T08:08:51.636Z,100617.59
2022-12-26T08:11:20.940Z,100615.03
2022-12-26T08:13:47.307Z,100621.13
2022-12-26T08:16:14.851Z,100611.53
2022-12-26T08:18:41.403Z,100610.66
2022-12-26T08:21:07.784Z,100612.44
2022-12-26T08:23:34.402Z,100600.19
2022-12-26T08:26:04.657Z,100600.22
2022-12-26T08:28:30.923Z,100595.81
2022-12-26T08:30:57.169Z,100595.88
2022-12-26T08:33:23.420Z,100591.53
2022-12-26T08:35:49.699Z,100602.03
2022-12-26T08:38:16.506Z,100617.78
2022-12-26T08:40:44.294Z,100596.78
2022-12-26T08:43:30.139Z,100594.16
2022-12-26T08:46:02.057Z,100592.47
2022-12-26T08:48:28.940Z,100600.34
2022-12-26T08:50:56.160Z,100590.75
2022-12-26T08:53:22.703Z,100587.25
2022-12-26T08:55:49.003Z,100594.28
2022-12-26T08:58:15.357Z,100594.31
2022-12-26T09:00:41.883Z,100593.44
2022-12-26T09:03:08.223Z,100588.22
2022-12-26T09:05:34.719Z,100587.38
2022-12-26T09:08:01.024Z,100581.28
2022-12-26T09:10:27.792Z,100584.78
2022-12-26T09:12:54.181Z,100595.31
2022-12-26T09:15:20.459Z,100580.41
2022-12-26T09:17:46.720Z,100586.56
2022-12-26T09:20:13.036Z,100581.34
2022-12-26T09:22:51.406Z,100578.75
2022-12-26T09:25:18.408Z,100577.00
2022-12-26T09:27:44.832Z,100583.16
2022-12-26T09:30:11.393Z,100576.13
2022-12-26T09:32:37.823Z,100582.28
2022-12-26T09:35:04.882Z,100583.16
2022-12-26T09:37:33.357Z,100577.00
2022-12-26T09:39:59.634Z,100570.91
2022-12-26T09:42:33.121Z,100574.44
2022-12-26T09:45:11.653Z,100573.56
2022-12-26T09:47:46.276Z,100573.59
2022-12-26T09:50:14.616Z,100570.97
2022-12-26T09:52:40.874Z,100569.25
2022-12-26T09:55:26.974Z,100575.38
2022-12-26T09:57:55.317Z,100571.91
2022-12-26T10:00:26.736Z,100584.19
2022-12-26T10:02:54.758Z,100575.44
2022-12-26T10:05:23.235Z,100585.97
2022-12-26T10:07:52.306Z,100583.38
2022-12-26T10:10:29.955Z,100565.81
2022-12-26T10:13:00.499Z,100565.81
2022-12-26T10:15:29.632Z,100557.94
2022-12-26T10:18:09.017Z,100558.84
2022-12-26T10:20:35.337Z,100562.38
2022-12-26T10:23:13.613Z,100561.53
2022-12-26T10:25:43.178Z,100564.19
2022-12-26T10:28:17.497Z,100557.16
2022-12-26T10:30:46.018Z,100557.19
2022-12-26T10:33:41.593Z,100550.16
2022-12-26T10:36:28.540Z,100557.19
2022-12-26T10:38:56.526Z,100553.78
2022-12-26T10:41:27.215Z,100552.00
2022-12-26T10:43:54.206Z,100545.88
2022-12-26T10:46:26.729Z,100537.16
2022-12-26T10:48:53.851Z,100538.06
2022-12-26T10:51:20.197Z,100523.19
2022-12-26T10:53:50.962Z,100527.59
2022-12-26T10:56:18.495Z,100523.25
2022-12-26T10:58:45.794Z,100513.59
2022-12-26T11:01:32.890Z,100512.69
2022-12-26T11:04:00.921Z,100512.69
2022-12-26T11:06:30.619Z,100504.75
2022-12-26T11:08:57.050Z,100506.53
2022-12-26T11:11:46.262Z,100506.50
2022-12-26T11:14:31.745Z,100506.50
2022-12-26T11:17:01.889Z,100507.38
2022-12-26T11:19:34.391Z,100502.13
2022-12-26T11:22:19.233Z,100501.25
2022-12-26T11:24:45.839Z,100511.75
2022-12-26T11:27:26.114Z,100500.38
2022-12-26T11:30:09.949Z,100504.72
2022-12-26T11:32:41.019Z,100485.47
2022-12-26T11:35:19.814Z,100481.94
2022-12-26T11:37:48.682Z,100479.34
2022-12-26T11:40:20.142Z,100474.94
2022-12-26T11:42:50.909Z,100467.94
2022-12-26T11:45:21.759Z,100469.69
2022-12-26T11:47:48.262Z,100465.31
2022-12-26T11:50:21.109Z,100467.06
2022-12-26T11:53:04.692Z,100461.78
2022-12-26T11:55:36.568Z,100470.56
2022-12-26T11:58:09.348Z,100459.16
2022-12-26T12:00:38.509Z,100460.91
2022-12-26T12:03:10.631Z,100452.13
2022-12-26T12:05:43.609Z,100442.47
2022-12-26T12:08:28.656Z,100438.97
2022-12-26T12:11:01.023Z,100438.03
2022-12-26T12:13:27.300Z,100427.53
2022-12-26T12:16:21.231Z,100423.13
2022-12-26T12:18:56.665Z,100418.72
2022-12-26T12:21:32.735Z,100420.50
2022-12-26T12:24:01.814Z,100414.38
2022-12-26T12:26:31.406Z,100411.75
2022-12-26T12:29:16.295Z,100405.59
2022-12-26T12:31:57.373Z,100417.88
2022-12-26T12:34:29.712Z,100416.97
2022-12-26T12:37:08.353Z,100411.72
2022-12-26T12:39:41.933Z,100403.81
2022-12-26T12:42:17.345Z,100403.81
2022-12-26T12:44:43.654Z,100405.59
2022-12-26T12:47:16.018Z,100400.31
2022-12-26T12:49:51.336Z,100651.81
2022-12-26T12:52:25.941Z,100678.97
2022-12-26T12:55:18.304Z,100652.66
2022-12-26T12:58:00.109Z,100642.09
2022-12-26T13:00:28.964Z,100654.44
2022-12-26T13:03:10.384Z,100648.25
2022-12-26T13:05:43.129Z,100634.22
2022-12-26T13:08:15.682Z,100639.47
2022-12-26T13:10:52.877Z,100642.06
2022-12-26T13:13:22.723Z,100623.63
2022-12-26T13:15:50.417Z,100609.56
2022-12-26T13:18:22.834Z,100607.81
2022-12-26T13:20:52.865Z,100569.19
2022-12-26T13:23:46.988Z,100538.50
2022-12-26T13:26:18.929Z,100500.72
2022-12-26T13:29:03.360Z,100490.16
2022-12-26T13:31:36.759Z,100473.47
2022-12-26T13:34:04.723Z,100457.63
2022-12-26T13:36:39.525Z,100429.50
2022-12-26T13:39:24.395Z,100425.94
2022-12-26T13:42:29.821Z,100415.34
2022-12-26T13:44:56.099Z,100396.91
2022-12-26T13:47:33.560Z,100390.75
2022-12-26T13:50:19.831Z,100368.75
2022-12-26T13:52:47.081Z,100377.47
2022-12-26T13:55:13.312Z,100375.69
2022-12-26T13:57:42.478Z,100373.06
2022-12-26T14:00:14.862Z,100375.69
2022-12-26T14:03:17.113Z,100376.50
2022-12-26T14:05:56.755Z,100374.72
2022-12-26T14:08:26.026Z,100383.41
2022-12-26T14:11:08.776Z,100445.47
2022-12-26T14:13:48.405Z,100492.53
2022-12-26T14:16:26.163Z,100519.53
2022-12-26T14:19:09.356Z,100533.28
2022-12-26T14:21:38.635Z,100566.22
2022-12-26T14:24:24.320Z,100579.94
2022-12-26T14:26:50.585Z,100598.09
2022-12-26T14:29:17.233Z,100590.94
2022-12-26T14:31:46.396Z,100611.75
2022-12-26T14:34:21.981Z,100615.03
2022-12-26T14:36:51.293Z,100647.28
2022-12-26T14:39:37.026Z,100643.75
2022-12-26T14:42:24.968Z,100638.47
2022-12-26T14:44:58.032Z,100662.13
2022-12-26T14:47:45.050Z,100662.00
2022-12-26T14:50:29.945Z,100665.50
2022-12-26T14:53:16.177Z,100671.56
2022-12-26T14:55:42.892Z,100686.16
2022-12-26T14:58:26.147Z,100703.69
2022-12-26T15:00:53.209Z,100713.19
2022-12-26T15:03:22.493Z,100714.91
2022-12-26T15:05:50.502Z,100713.91
2022-12-26T15:08:35.337Z,100714.75
2022-12-26T15:11:07.756Z,100733.81
2022-12-26T15:13:52.998Z,100740.75
2022-12-26T15:16:27.658Z,100741.56
2022-12-26T15:19:12.475Z,100739.63
2022-12-26T15:21:48.098Z,100739.34
2022-12-26T15:24:45.401Z,100742.53
2022-12-26T15:27:14.519Z,100765.91
2022-12-26T15:29:59.557Z,100766.50
2022-12-26T15:32:36.957Z,100771.53
2022-12-26T15:35:03.326Z,100762.56
2022-12-26T15:37:49.629Z,100894.06
2022-12-26T15:40:25.198Z,100897.50
2022-12-26T15:43:00.607Z,100903.53
2022-12-26T15:45:48.310Z,100907.03
2022-12-26T15:48:33.575Z,100906.03
2022-12-26T15:51:02.607Z,100906.69
2022-12-26T15:53:36.378Z,100900.59
2022-12-26T15:56:22.011Z,100907.44
2022-12-26T15:59:09.567Z,100906.47
2022-12-26T16:01:43.596Z,100908.97
2022-12-26T16:04:17.867Z,100908.09
2022-12-26T16:06:53.037Z,100916.66
2022-12-26T16:09:22.424Z,100910.56
2022-12-26T16:11:54.284Z,100925.34
2022-12-26T16:14:28.128Z,100921.78
2022-12-26T16:16:54.639Z,100933.16
2022-12-26T16:19:22.739Z,100940.09
2022-12-26T16:22:10.498Z,100945.28
2022-12-26T16:24:38.377Z,100948.66
2022-12-26T16:27:06.127Z,100953.78
2022-12-26T16:29:32.913Z,100958.03
2022-12-26T16:32:06.557Z,100970.34
2022-12-26T16:34:35.796Z,100960.75
2022-12-26T16:37:02.668Z,100966.94
2022-12-26T16:39:28.962Z,100977.56
2022-12-26T16:42:04.508Z,100978.25
2022-12-26T16:44:34.338Z,100977.22
2022-12-26T16:47:02.425Z,100982.59
2022-12-26T16:49:30.821Z,100979.94
2022-12-26T16:51:57.238Z,100983.28
2022-12-26T16:54:36.412Z,100985.06
2022-12-26T16:57:28.812Z,100982.28
2022-12-26T16:59:57.069Z,100983.94
2022-12-26T17:02:28.384Z,100995.91
2022-12-26T17:05:00.537Z,100989.84
2022-12-26T17:07:27.927Z,100995.22
2022-12-26T17:09:56.263Z,100990.88
2022-12-26T18:51:14.004Z,100832.56
2022-12-26T18:53:40.313Z,100829.09
2022-12-26T18:56:07.160Z,100832.50
2022-12-26T18:58:33.447Z,100825.41
2022-12-26T19:01:00.776Z,100832.44
2022-12-26T19:03:27.091Z,100878.81
2022-12-26T19:05:53.418Z,100904.34
2022-12-26T19:08:19.714Z,100933.34
2022-12-26T19:10:47.332Z,100964.06
2022-12-26T19:13:14.359Z,100982.53
2022-12-26T19:15:44.140Z,100993.09
2022-12-26T19:18:10.460Z,100990.44
2022-12-26T19:20:43.740Z,100965.00
2022-12-26T19:23:10.601Z,100959.69
2022-12-26T19:25:36.906Z,100959.69
2022-12-26T19:28:03.189Z,100971.19
2022-12-26T19:30:33.620Z,100974.66
2022-12-26T19:33:03.220Z,100958.03
2022-12-26T19:35:29.526Z,100946.63
2022-12-26T19:37:55.856Z,100920.41
2022-12-26T19:40:25.206Z,100906.41
2022-12-26T19:42:51.941Z,100900.28
2022-12-26T19:45:18.238Z,100880.13
2022-12-26T19:47:44.694Z,100863.56
2022-12-26T19:50:11.472Z,100851.50
2022-12-26T19:52:38.816Z,100814.97
2022-12-26T19:55:05.864Z,100783.72
2022-12-26T19:57:32.216Z,100740.13
2022-12-26T19:59:58.526Z,100704.41
2022-12-26T20:02:24.918Z,100667.78
2022-12-26T20:04:51.361Z,100658.28
2022-12-26T20:07:17.641Z,100637.31
2022-12-26T20:09:44.269Z,100646.03
2022-12-26T20:12:10.629Z,101011.25
2022-12-26T20:14:37.519Z,101021.75
2022-12-26T20:17:06.138Z,101020.06
2022-12-26T20:19:33.633Z,101020.00
2022-12-26T20:21:59.947Z,101029.56
2022-12-26T20:24:26.320Z,101034.72
2022-12-26T20:26:52.843Z,101038.25
2022-12-26T20:29:19.178Z,101044.38
2022-12-26T20:31:45.596Z,101042.75
2022-12-26T20:34:12.394Z,101040.13
2022-12-26T20:36:39.342Z,101051.47
2022-12-26T20:39:07.665Z,101049.72
2022-12-26T20:41:34.829Z,101061.13
2022-12-26T20:44:01.189Z,101059.41
2022-12-26T20:46:30.877Z,101075.09
2022-12-26T20:48:57.613Z,101079.44
2022-12-26T20:51:36.394Z,101071.56
2022-12-26T20:54:03.945Z,101076.00
2022-12-26T20:56:30.341Z,101086.44
2022-12-26T20:58:59.096Z,101083.88
2022-12-26T21:01:26.010Z,101093.53
2022-12-26T21:03:52.973Z,101084.88
2022-12-26T21:06:40.721Z,101087.44
2022-12-26T21:09:07.006Z,101108.41
2022-12-26T21:11:35.242Z,101106.00
2022-12-26T21:14:16.423Z,101102.78
2022-12-26T21:16:44.565Z,101099.47
2022-12-26T21:19:15.338Z,101100.28
2022-12-26T21:41:50.780Z,101125.31
2022-12-26T21:44:20.216Z,101128.72
2022-12-26T21:46:46.631Z,101127.84
2022-12-26T21:49:12.995Z,101122.63
2022-12-26T21:51:48.233Z,101127.78
2022-12-26T21:54:36.458Z,101127.75
2022-12-26T21:57:21.200Z,101127.47
2022-12-26T21:59:56.455Z,101131.63
2022-12-26T22:03:00.364Z,101142.00
2022-12-26T22:05:27.750Z,101138.56
2022-12-26T22:08:12.430Z,101126.50
2022-12-26T22:11:18.987Z,101134.31
2022-12-26T22:13:57.376Z,101135.16
2022-12-26T22:17:13.829Z,101139.47
2022-12-26T22:22:34.011Z,101134.94
2022-12-26T22:25:00.678Z,101141.75
2022-12-26T22:27:27.096Z,101146.03
2022-12-26T22:29:53.623Z,101146.81
2022-12-26T22:43:15.473Z,101158.88
2022-12-26T23:02:24.730Z,101173.88
2022-12-26T23:15:24.780Z,101185.72
2022-12-26T23:21:44.064Z,101185.53
2022-12-26T23:24:32.455Z,101171.19
2022-12-26T23:27:21.192Z,101177.09
2022-12-26T23:36:49.304Z,101192.66
2022-12-26T23:39:53.015Z,101180.38
2022-12-26T23:42:31.825Z,101181.03
2022-12-26T23:45:29.335Z,101181.88
2022-12-26T23:47:55.672Z,101174.69
2022-12-26T23:50:30.880Z,101179.81
2022-12-26T23:53:50.127Z,101179.69
2022-12-26T23:59:38.117Z,101175.88
